sensor_id;sensor_type;location;lat;lon;timestamp;P1;durP1;ratioP1;P2;durP2;ratioP2
14048;SDS011;7099;53.922;10.728;2023-07-28T00:04:00;5.40;;;3.57;;
14048;SDS011;7099;53.922;10.728;2023-07-28T00:08:06;4.30;;;3.60;;
14048;SDS011;7099;53.922;10.728;2023-07-28T00:12:11;5.90;;;3.50;;
14048;SDS011;7099;53.922;10.728;2023-07-28T00:16:17;5.60;;;3.93;;
14048;SDS011;7099;53.922;10.728;2023-07-28T00:20:22;7.13;;;3.77;;
14048;SDS011;7099;53.922;10.728;2023-07-28T00:24:28;6.20;;;4.13;;
14048;SDS011;7099;53.922;10.728;2023-07-28T00:28:33;5.53;;;3.93;;
14048;SDS011;7099;53.922;10.728;2023-07-28T00:32:39;6.57;;;4.80;;
14048;SDS011;7099;53.922;10.728;2023-07-28T00:36:44;4.33;;;3.93;;
14048;SDS011;7099;53.922;10.728;2023-07-28T00:40:50;10.40;;;4.80;;
14048;SDS011;7099;53.922;10.728;2023-07-28T00:44:56;6.93;;;4.60;;
14048;SDS011;7099;53.922;10.728;2023-07-28T00:49:01;5.03;;;4.37;;
14048;SDS011;7099;53.922;10.728;2023-07-28T00:53:08;7.93;;;4.23;;
14048;SDS011;7099;53.922;10.728;2023-07-28T00:57:14;4.90;;;4.40;;
14048;SDS011;7099;53.922;10.728;2023-07-28T01:01:19;9.53;;;5.10;;
14048;SDS011;7099;53.922;10.728;2023-07-28T01:05:29;5.80;;;4.43;;
14048;SDS011;7099;53.922;10.728;2023-07-28T01:09:50;6.57;;;4.47;;
14048;SDS011;7099;53.922;10.728;2023-07-28T01:14:03;5.40;;;4.20;;
14048;SDS011;7099;53.922;10.728;2023-07-28T01:18:08;6.50;;;5.07;;
14048;SDS011;7099;53.922;10.728;2023-07-28T01:26:52;5.50;;;4.20;;
14048;SDS011;7099;53.922;10.728;2023-07-28T01:30:59;5.40;;;4.10;;
14048;SDS011;7099;53.922;10.728;2023-07-28T01:35:07;5.10;;;4.60;;
14048;SDS011;7099;53.922;10.728;2023-07-28T01:39:13;8.37;;;5.53;;
14048;SDS011;7099;53.922;10.728;2023-07-28T01:43:19;7.50;;;4.90;;
14048;SDS011;7099;53.922;10.728;2023-07-28T01:47:24;6.40;;;4.83;;
14048;SDS011;7099;53.922;10.728;2023-07-28T01:51:30;6.50;;;4.53;;
14048;SDS011;7099;53.922;10.728;2023-07-28T01:55:35;8.90;;;5.20;;
14048;SDS011;7099;53.922;10.728;2023-07-28T01:59:41;6.97;;;5.10;;
14048;SDS011;7099;53.922;10.728;2023-07-28T02:03:46;7.97;;;5.20;;
14048;SDS011;7099;53.922;10.728;2023-07-28T02:07:52;6.30;;;5.07;;
14048;SDS011;7099;53.922;10.728;2023-07-28T02:11:58;8.53;;;6.03;;
14048;SDS011;7099;53.922;10.728;2023-07-28T02:16:03;8.00;;;6.40;;
14048;SDS011;7099;53.922;10.728;2023-07-28T02:20:09;6.60;;;5.63;;
14048;SDS011;7099;53.922;10.728;2023-07-28T02:24:20;7.30;;;6.03;;
14048;SDS011;7099;53.922;10.728;2023-07-28T02:28:25;8.13;;;7.10;;
14048;SDS011;7099;53.922;10.728;2023-07-28T02:32:31;9.07;;;7.40;;
14048;SDS011;7099;53.922;10.728;2023-07-28T02:36:37;11.03;;;7.67;;
14048;SDS011;7099;53.922;10.728;2023-07-28T02:40:44;11.50;;;7.80;;
14048;SDS011;7099;53.922;10.728;2023-07-28T02:44:49;9.43;;;8.10;;
14048;SDS011;7099;53.922;10.728;2023-07-28T02:48:55;10.90;;;8.30;;
14048;SDS011;7099;53.922;10.728;2023-07-28T02:53:01;10.17;;;7.93;;
14048;SDS011;7099;53.922;10.728;2023-07-28T02:57:06;11.20;;;8.60;;
14048;SDS011;7099;53.922;10.728;2023-07-28T03:01:12;15.40;;;8.97;;
14048;SDS011;7099;53.922;10.728;2023-07-28T03:05:17;10.80;;;8.47;;
14048;SDS011;7099;53.922;10.728;2023-07-28T03:09:23;13.10;;;8.47;;
14048;SDS011;7099;53.922;10.728;2023-07-28T03:13:28;9.30;;;8.30;;
14048;SDS011;7099;53.922;10.728;2023-07-28T03:17:34;12.00;;;9.10;;
14048;SDS011;7099;53.922;10.728;2023-07-28T03:21:40;9.60;;;7.93;;
14048;SDS011;7099;53.922;10.728;2023-07-28T03:25:46;11.97;;;8.13;;
14048;SDS011;7099;53.922;10.728;2023-07-28T03:29:51;10.47;;;8.03;;
14048;SDS011;7099;53.922;10.728;2023-07-28T03:33:57;14.23;;;8.50;;
14048;SDS011;7099;53.922;10.728;2023-07-28T03:38:02;18.47;;;7.97;;
14048;SDS011;7099;53.922;10.728;2023-07-28T03:42:08;10.57;;;8.20;;
14048;SDS011;7099;53.922;10.728;2023-07-28T03:46:13;10.40;;;8.23;;
14048;SDS011;7099;53.922;10.728;2023-07-28T03:50:19;13.93;;;9.00;;
14048;SDS011;7099;53.922;10.728;2023-07-28T03:54:24;14.00;;;9.37;;
14048;SDS011;7099;53.922;10.728;2023-07-28T03:58:30;10.93;;;8.47;;
14048;SDS011;7099;53.922;10.728;2023-07-28T04:02:36;16.13;;;9.80;;
14048;SDS011;7099;53.922;10.728;2023-07-28T04:06:45;12.93;;;8.47;;
14048;SDS011;7099;53.922;10.728;2023-07-28T04:10:55;10.87;;;9.10;;
14048;SDS011;7099;53.922;10.728;2023-07-28T04:15:01;11.37;;;8.37;;
14048;SDS011;7099;53.922;10.728;2023-07-28T04:19:06;13.63;;;8.70;;
14048;SDS011;7099;53.922;10.728;2023-07-28T04:23:12;11.33;;;8.90;;
14048;SDS011;7099;53.922;10.728;2023-07-28T04:27:17;10.30;;;8.50;;
14048;SDS011;7099;53.922;10.728;2023-07-28T04:31:23;9.27;;;7.33;;
14048;SDS011;7099;53.922;10.728;2023-07-28T04:35:29;10.93;;;8.00;;
14048;SDS011;7099;53.922;10.728;2023-07-28T04:39:35;9.80;;;7.47;;
14048;SDS011;7099;53.922;10.728;2023-07-28T04:43:40;11.10;;;7.43;;
14048;SDS011;7099;53.922;10.728;2023-07-28T04:47:46;11.80;;;7.10;;
14048;SDS011;7099;53.922;10.728;2023-07-28T04:51:52;8.80;;;6.45;;
14048;SDS011;7099;53.922;10.728;2023-07-28T04:55:57;8.17;;;6.40;;
14048;SDS011;7099;53.922;10.728;2023-07-28T05:00:03;7.43;;;6.07;;
14048;SDS011;7099;53.922;10.728;2023-07-28T05:04:10;6.00;;;5.40;;
14048;SDS011;7099;53.922;10.728;2023-07-28T05:08:15;6.73;;;4.53;;
14048;SDS011;7099;53.922;10.728;2023-07-28T05:12:21;6.07;;;4.87;;
14048;SDS011;7099;53.922;10.728;2023-07-28T05:16:26;13.33;;;4.77;;
14048;SDS011;7099;53.922;10.728;2023-07-28T05:20:32;8.80;;;4.73;;
14048;SDS011;7099;53.922;10.728;2023-07-28T05:24:37;9.33;;;4.47;;
14048;SDS011;7099;53.922;10.728;2023-07-28T05:28:43;7.90;;;4.70;;
14048;SDS011;7099;53.922;10.728;2023-07-28T05:32:49;6.03;;;4.67;;
14048;SDS011;7099;53.922;10.728;2023-07-28T05:36:54;5.73;;;4.00;;
14048;SDS011;7099;53.922;10.728;2023-07-28T05:41:00;6.83;;;4.77;;
14048;SDS011;7099;53.922;10.728;2023-07-28T05:45:08;5.83;;;4.47;;
14048;SDS011;7099;53.922;10.728;2023-07-28T05:49:14;6.00;;;4.27;;
14048;SDS011;7099;53.922;10.728;2023-07-28T05:53:20;7.00;;;4.37;;
14048;SDS011;7099;53.922;10.728;2023-07-28T05:57:26;6.30;;;4.40;;
14048;SDS011;7099;53.922;10.728;2023-07-28T06:01:31;7.37;;;4.97;;
14048;SDS011;7099;53.922;10.728;2023-07-28T06:05:39;11.40;;;4.43;;
14048;SDS011;7099;53.922;10.728;2023-07-28T06:09:45;7.63;;;5.60;;
14048;SDS011;7099;53.922;10.728;2023-07-28T06:13:51;7.67;;;5.03;;
14048;SDS011;7099;53.922;10.728;2023-07-28T06:17:56;8.63;;;5.20;;
14048;SDS011;7099;53.922;10.728;2023-07-28T06:22:02;5.07;;;4.57;;
14048;SDS011;7099;53.922;10.728;2023-07-28T06:26:07;5.97;;;4.90;;
14048;SDS011;7099;53.922;10.728;2023-07-28T06:30:13;5.07;;;4.20;;
14048;SDS011;7099;53.922;10.728;2023-07-28T06:34:18;7.30;;;4.40;;
14048;SDS011;7099;53.922;10.728;2023-07-28T06:38:24;4.80;;;4.10;;
14048;SDS011;7099;53.922;10.728;2023-07-28T06:42:29;4.80;;;3.83;;
14048;SDS011;7099;53.922;10.728;2023-07-28T06:46:35;4.37;;;3.50;;
14048;SDS011;7099;53.922;10.728;2023-07-28T06:50:41;5.93;;;3.80;;
14048;SDS011;7099;53.922;10.728;2023-07-28T06:54:47;5.00;;;3.50;;
14048;SDS011;7099;53.922;10.728;2023-07-28T06:58:53;8.73;;;3.40;;
14048;SDS011;7099;53.922;10.728;2023-07-28T07:03:17;5.33;;;3.30;;
14048;SDS011;7099;53.922;10.728;2023-07-28T07:07:24;4.17;;;2.87;;
14048;SDS011;7099;53.922;10.728;2023-07-28T07:11:35;3.83;;;3.07;;
14048;SDS011;7099;53.922;10.728;2023-07-28T07:15:41;4.40;;;3.37;;
14048;SDS011;7099;53.922;10.728;2023-07-28T07:19:47;8.30;;;3.43;;
14048;SDS011;7099;53.922;10.728;2023-07-28T07:23:52;6.43;;;3.40;;
14048;SDS011;7099;53.922;10.728;2023-07-28T07:27:58;3.53;;;2.60;;
14048;SDS011;7099;53.922;10.728;2023-07-28T07:32:04;3.50;;;3.00;;
14048;SDS011;7099;53.922;10.728;2023-07-28T07:36:11;5.40;;;3.93;;
14048;SDS011;7099;53.922;10.728;2023-07-28T07:40:18;4.80;;;3.30;;
14048;SDS011;7099;53.922;10.728;2023-07-28T07:44:24;6.97;;;2.50;;
14048;SDS011;7099;53.922;10.728;2023-07-28T07:48:29;3.20;;;2.57;;
14048;SDS011;7099;53.922;10.728;2023-07-28T07:52:35;3.77;;;2.97;;
14048;SDS011;7099;53.922;10.728;2023-07-28T07:56:45;3.20;;;2.87;;
14048;SDS011;7099;53.922;10.728;2023-07-28T08:00:51;6.60;;;2.80;;
14048;SDS011;7099;53.922;10.728;2023-07-28T08:04:57;3.20;;;2.70;;
14048;SDS011;7099;53.922;10.728;2023-07-28T08:09:02;4.60;;;2.60;;
14048;SDS011;7099;53.922;10.728;2023-07-28T08:13:08;3.70;;;2.30;;
14048;SDS011;7099;53.922;10.728;2023-07-28T08:17:14;5.20;;;3.30;;
14048;SDS011;7099;53.922;10.728;2023-07-28T08:21:20;3.70;;;2.60;;
14048;SDS011;7099;53.922;10.728;2023-07-28T08:25:27;6.43;;;2.37;;
14048;SDS011;7099;53.922;10.728;2023-07-28T08:46:03;2.37;;;2.10;;
14048;SDS011;7099;53.922;10.728;2023-07-28T08:50:08;3.57;;;2.20;;
14048;SDS011;7099;53.922;10.728;2023-07-28T08:54:14;4.80;;;2.07;;
14048;SDS011;7099;53.922;10.728;2023-07-28T08:58:21;2.43;;;2.00;;
14048;SDS011;7099;53.922;10.728;2023-07-28T09:02:29;2.90;;;1.60;;
14048;SDS011;7099;53.922;10.728;2023-07-28T09:06:35;4.60;;;1.97;;
14048;SDS011;7099;53.922;10.728;2023-07-28T09:10:44;2.00;;;1.80;;
14048;SDS011;7099;53.922;10.728;2023-07-28T09:14:56;3.00;;;2.30;;
14048;SDS011;7099;53.922;10.728;2023-07-28T09:19:05;4.03;;;1.90;;
14048;SDS011;7099;53.922;10.728;2023-07-28T09:23:13;7.23;;;1.57;;
14048;SDS011;7099;53.922;10.728;2023-07-28T09:27:21;3.20;;;1.90;;
14048;SDS011;7099;53.922;10.728;2023-07-28T09:31:29;2.30;;;1.70;;
14048;SDS011;7099;53.922;10.728;2023-07-28T09:35:42;3.20;;;1.60;;
14048;SDS011;7099;53.922;10.728;2023-07-28T09:39:55;1.40;;;1.20;;
14048;SDS011;7099;53.922;10.728;2023-07-28T09:44:00;3.10;;;1.33;;
14048;SDS011;7099;53.922;10.728;2023-07-28T09:48:06;2.03;;;1.60;;
14048;SDS011;7099;53.922;10.728;2023-07-28T09:52:14;2.23;;;1.40;;
14048;SDS011;7099;53.922;10.728;2023-07-28T09:56:25;2.10;;;1.60;;
14048;SDS011;7099;53.922;10.728;2023-07-28T10:00:36;1.63;;;1.27;;
14048;SDS011;7099;53.922;10.728;2023-07-28T10:04:43;1.50;;;1.30;;
14048;SDS011;7099;53.922;10.728;2023-07-28T10:08:49;3.90;;;1.40;;
14048;SDS011;7099;53.922;10.728;2023-07-28T10:12:55;2.70;;;1.50;;
14048;SDS011;7099;53.922;10.728;2023-07-28T10:17:03;2.27;;;1.20;;
14048;SDS011;7099;53.922;10.728;2023-07-28T10:21:15;1.97;;;1.40;;
14048;SDS011;7099;53.922;10.728;2023-07-28T10:25:22;1.20;;;1.10;;
14048;SDS011;7099;53.922;10.728;2023-07-28T10:29:30;1.90;;;1.10;;
14048;SDS011;7099;53.922;10.728;2023-07-28T10:33:46;4.03;;;1.23;;
14048;SDS011;7099;53.922;10.728;2023-07-28T10:37:53;1.83;;;1.30;;
14048;SDS011;7099;53.922;10.728;2023-07-28T10:42:02;2.07;;;1.20;;
14048;SDS011;7099;53.922;10.728;2023-07-28T10:46:16;2.83;;;1.60;;
14048;SDS011;7099;53.922;10.728;2023-07-28T10:50:28;1.70;;;1.40;;
14048;SDS011;7099;53.922;10.728;2023-07-28T10:54:35;2.33;;;1.10;;
14048;SDS011;7099;53.922;10.728;2023-07-28T10:58:41;2.00;;;1.33;;
14048;SDS011;7099;53.922;10.728;2023-07-28T11:02:50;1.67;;;1.40;;
14048;SDS011;7099;53.922;10.728;2023-07-28T11:06:58;2.63;;;1.40;;
14048;SDS011;7099;53.922;10.728;2023-07-28T11:11:04;1.53;;;1.27;;
14048;SDS011;7099;53.922;10.728;2023-07-28T11:15:11;2.70;;;1.50;;
14048;SDS011;7099;53.922;10.728;2023-07-28T11:19:19;1.77;;;1.43;;
14048;SDS011;7099;53.922;10.728;2023-07-28T11:23:30;2.60;;;1.10;;
14048;SDS011;7099;53.922;10.728;2023-07-28T11:27:36;4.10;;;1.40;;
14048;SDS011;7099;53.922;10.728;2023-07-28T11:31:43;1.97;;;1.47;;
14048;SDS011;7099;53.922;10.728;2023-07-28T11:35:49;1.80;;;1.30;;
14048;SDS011;7099;53.922;10.728;2023-07-28T11:39:55;1.67;;;1.23;;
14048;SDS011;7099;53.922;10.728;2023-07-28T11:44:01;1.30;;;1.20;;
14048;SDS011;7099;53.922;10.728;2023-07-28T11:48:07;1.63;;;1.30;;
14048;SDS011;7099;53.922;10.728;2023-07-28T11:52:13;1.40;;;1.30;;
14048;SDS011;7099;53.922;10.728;2023-07-28T11:56:20;2.13;;;1.20;;
14048;SDS011;7099;53.922;10.728;2023-07-28T12:00:29;1.20;;;1.10;;
14048;SDS011;7099;53.922;10.728;2023-07-28T12:04:47;1.10;;;0.90;;
14048;SDS011;7099;53.922;10.728;2023-07-28T12:09:09;1.43;;;1.10;;
14048;SDS011;7099;53.922;10.728;2023-07-28T12:13:15;1.40;;;1.27;;
14048;SDS011;7099;53.922;10.728;2023-07-28T12:17:24;1.73;;;1.30;;
14048;SDS011;7099;53.922;10.728;2023-07-28T12:21:52;3.17;;;1.10;;
14048;SDS011;7099;53.922;10.728;2023-07-28T12:25:57;3.43;;;1.30;;
14048;SDS011;7099;53.922;10.728;2023-07-28T12:30:03;1.73;;;1.47;;
14048;SDS011;7099;53.922;10.728;2023-07-28T12:34:19;1.37;;;1.00;;
14048;SDS011;7099;53.922;10.728;2023-07-28T12:38:28;1.63;;;1.40;;
14048;SDS011;7099;53.922;10.728;2023-07-28T12:42:36;2.77;;;1.90;;
14048;SDS011;7099;53.922;10.728;2023-07-28T12:46:45;1.30;;;1.10;;
14048;SDS011;7099;53.922;10.728;2023-07-28T12:50:50;3.00;;;1.17;;
14048;SDS011;7099;53.922;10.728;2023-07-28T12:55:07;5.67;;;1.30;;
14048;SDS011;7099;53.922;10.728;2023-07-28T12:59:16;2.33;;;1.37;;
14048;SDS011;7099;53.922;10.728;2023-07-28T13:03:24;1.20;;;1.10;;
14048;SDS011;7099;53.922;10.728;2023-07-28T13:07:30;1.63;;;1.50;;
14048;SDS011;7099;53.922;10.728;2023-07-28T13:11:38;2.50;;;1.30;;
14048;SDS011;7099;53.922;10.728;2023-07-28T13:15:47;3.17;;;1.07;;
14048;SDS011;7099;53.922;10.728;2023-07-28T13:19:52;2.33;;;1.20;;
14048;SDS011;7099;53.922;10.728;2023-07-28T13:23:58;1.93;;;1.13;;
14048;SDS011;7099;53.922;10.728;2023-07-28T13:28:04;3.13;;;1.23;;
14048;SDS011;7099;53.922;10.728;2023-07-28T13:32:18;1.50;;;1.13;;
14048;SDS011;7099;53.922;10.728;2023-07-28T13:36:29;4.70;;;1.50;;
14048;SDS011;7099;53.922;10.728;2023-07-28T13:40:35;1.40;;;1.27;;
14048;SDS011;7099;53.922;10.728;2023-07-28T13:44:42;5.77;;;1.40;;
14048;SDS011;7099;53.922;10.728;2023-07-28T13:49:02;2.57;;;1.40;;
14048;SDS011;7099;53.922;10.728;2023-07-28T13:53:12;1.37;;;1.17;;
14048;SDS011;7099;53.922;10.728;2023-07-28T13:57:20;3.60;;;1.50;;
14048;SDS011;7099;53.922;10.728;2023-07-28T14:01:26;1.77;;;1.23;;
14048;SDS011;7099;53.922;10.728;2023-07-28T14:05:31;1.47;;;1.37;;
14048;SDS011;7099;53.922;10.728;2023-07-28T14:09:37;1.50;;;1.20;;
14048;SDS011;7099;53.922;10.728;2023-07-28T14:13:43;1.73;;;1.43;;
14048;SDS011;7099;53.922;10.728;2023-07-28T14:17:48;1.67;;;1.43;;
14048;SDS011;7099;53.922;10.728;2023-07-28T14:21:54;2.90;;;1.50;;
14048;SDS011;7099;53.922;10.728;2023-07-28T14:26:00;1.80;;;1.40;;
14048;SDS011;7099;53.922;10.728;2023-07-28T14:30:05;2.50;;;1.30;;
14048;SDS011;7099;53.922;10.728;2023-07-28T14:34:12;1.90;;;1.40;;
14048;SDS011;7099;53.922;10.728;2023-07-28T14:38:17;1.50;;;1.20;;
14048;SDS011;7099;53.922;10.728;2023-07-28T14:42:24;1.30;;;1.20;;
14048;SDS011;7099;53.922;10.728;2023-07-28T14:46:29;2.63;;;1.47;;
14048;SDS011;7099;53.922;10.728;2023-07-28T14:50:35;1.23;;;1.10;;
14048;SDS011;7099;53.922;10.728;2023-07-28T14:54:40;2.10;;;1.20;;
14048;SDS011;7099;53.922;10.728;2023-07-28T14:58:46;1.80;;;1.30;;
14048;SDS011;7099;53.922;10.728;2023-07-28T15:02:52;1.90;;;1.40;;
14048;SDS011;7099;53.922;10.728;2023-07-28T15:06:58;1.47;;;1.10;;
14048;SDS011;7099;53.922;10.728;2023-07-28T15:11:03;1.70;;;1.37;;
14048;SDS011;7099;53.922;10.728;2023-07-28T15:15:09;1.77;;;1.07;;
14048;SDS011;7099;53.922;10.728;2023-07-28T15:19:15;1.00;;;0.90;;
14048;SDS011;7099;53.922;10.728;2023-07-28T15:23:20;1.30;;;1.20;;
14048;SDS011;7099;53.922;10.728;2023-07-28T15:27:29;1.93;;;1.10;;
14048;SDS011;7099;53.922;10.728;2023-07-28T15:31:34;1.90;;;1.40;;
14048;SDS011;7099;53.922;10.728;2023-07-28T15:35:40;2.30;;;1.37;;
14048;SDS011;7099;53.922;10.728;2023-07-28T15:39:46;1.53;;;1.20;;
14048;SDS011;7099;53.922;10.728;2023-07-28T15:43:51;2.10;;;1.27;;
14048;SDS011;7099;53.922;10.728;2023-07-28T15:47:57;1.10;;;1.00;;
14048;SDS011;7099;53.922;10.728;2023-07-28T15:52:03;1.10;;;1.00;;
14048;SDS011;7099;53.922;10.728;2023-07-28T15:56:09;5.20;;;0.97;;
14048;SDS011;7099;53.922;10.728;2023-07-28T16:00:14;1.23;;;1.00;;
14048;SDS011;7099;53.922;10.728;2023-07-28T16:04:21;4.83;;;1.30;;
14048;SDS011;7099;53.922;10.728;2023-07-28T16:08:26;2.37;;;1.33;;
14048;SDS011;7099;53.922;10.728;2023-07-28T16:12:32;1.93;;;1.20;;
14048;SDS011;7099;53.922;10.728;2023-07-28T16:16:38;3.43;;;1.30;;
14048;SDS011;7099;53.922;10.728;2023-07-28T16:20:45;2.00;;;1.10;;
14048;SDS011;7099;53.922;10.728;2023-07-28T16:24:50;1.10;;;1.00;;
14048;SDS011;7099;53.922;10.728;2023-07-28T16:28:56;0.90;;;0.80;;
14048;SDS011;7099;53.922;10.728;2023-07-28T16:33:01;3.93;;;1.20;;
14048;SDS011;7099;53.922;10.728;2023-07-28T16:37:07;2.90;;;1.10;;
14048;SDS011;7099;53.922;10.728;2023-07-28T16:41:12;2.30;;;1.20;;
14048;SDS011;7099;53.922;10.728;2023-07-28T16:45:18;1.60;;;1.17;;
14048;SDS011;7099;53.922;10.728;2023-07-28T16:49:23;2.50;;;1.20;;
14048;SDS011;7099;53.922;10.728;2023-07-28T16:53:29;2.40;;;1.10;;
14048;SDS011;7099;53.922;10.728;2023-07-28T16:57:34;1.47;;;1.30;;
14048;SDS011;7099;53.922;10.728;2023-07-28T17:01:40;1.30;;;1.03;;
14048;SDS011;7099;53.922;10.728;2023-07-28T17:05:46;1.83;;;0.90;;
14048;SDS011;7099;53.922;10.728;2023-07-28T17:09:52;1.03;;;0.90;;
14048;SDS011;7099;53.922;10.728;2023-07-28T17:13:57;1.97;;;1.00;;
14048;SDS011;7099;53.922;10.728;2023-07-28T17:18:04;3.20;;;1.20;;
14048;SDS011;7099;53.922;10.728;2023-07-28T17:22:09;1.57;;;1.27;;
14048;SDS011;7099;53.922;10.728;2023-07-28T17:26:15;1.40;;;1.10;;
14048;SDS011;7099;53.922;10.728;2023-07-28T17:30:21;1.87;;;1.20;;
14048;SDS011;7099;53.922;10.728;2023-07-28T17:34:26;3.47;;;1.47;;
14048;SDS011;7099;53.922;10.728;2023-07-28T17:38:34;2.60;;;1.20;;
14048;SDS011;7099;53.922;10.728;2023-07-28T17:42:39;1.57;;;1.00;;
14048;SDS011;7099;53.922;10.728;2023-07-28T17:46:45;1.70;;;1.20;;
14048;SDS011;7099;53.922;10.728;2023-07-28T17:50:50;1.10;;;1.00;;
14048;SDS011;7099;53.922;10.728;2023-07-28T17:54:56;2.40;;;1.07;;
14048;SDS011;7099;53.922;10.728;2023-07-28T17:59:01;1.13;;;0.90;;
14048;SDS011;7099;53.922;10.728;2023-07-28T18:03:08;1.03;;;0.93;;
14048;SDS011;7099;53.922;10.728;2023-07-28T18:07:13;1.67;;;0.90;;
14048;SDS011;7099;53.922;10.728;2023-07-28T18:11:19;1.60;;;1.20;;
14048;SDS011;7099;53.922;10.728;2023-07-28T18:15:25;2.07;;;1.17;;
14048;SDS011;7099;53.922;10.728;2023-07-28T18:19:30;2.20;;;1.20;;
14048;SDS011;7099;53.922;10.728;2023-07-28T18:23:36;1.43;;;1.20;;
14048;SDS011;7099;53.922;10.728;2023-07-28T18:27:42;4.50;;;1.13;;
14048;SDS011;7099;53.922;10.728;2023-07-28T18:31:47;2.80;;;1.17;;
14048;SDS011;7099;53.922;10.728;2023-07-28T18:35:53;2.47;;;1.20;;
14048;SDS011;7099;53.922;10.728;2023-07-28T18:39:58;2.30;;;1.10;;
14048;SDS011;7099;53.922;10.728;2023-07-28T18:44:04;1.53;;;1.27;;
14048;SDS011;7099;53.922;10.728;2023-07-28T18:48:09;1.93;;;1.20;;
14048;SDS011;7099;53.922;10.728;2023-07-28T18:52:16;1.57;;;1.20;;
14048;SDS011;7099;53.922;10.728;2023-07-28T18:56:21;1.20;;;1.00;;
14048;SDS011;7099;53.922;10.728;2023-07-28T19:00:27;1.93;;;1.50;;
14048;SDS011;7099;53.922;10.728;2023-07-28T19:04:32;1.27;;;1.00;;
14048;SDS011;7099;53.922;10.728;2023-07-28T19:08:38;2.33;;;1.27;;
14048;SDS011;7099;53.922;10.728;2023-07-28T19:12:47;1.63;;;1.30;;
14048;SDS011;7099;53.922;10.728;2023-07-28T19:16:52;2.37;;;1.50;;
14048;SDS011;7099;53.922;10.728;2023-07-28T19:20:58;2.40;;;1.33;;
14048;SDS011;7099;53.922;10.728;2023-07-28T19:25:04;4.60;;;1.67;;
14048;SDS011;7099;53.922;10.728;2023-07-28T19:29:10;1.40;;;1.20;;
14048;SDS011;7099;53.922;10.728;2023-07-28T19:33:17;5.07;;;1.50;;
14048;SDS011;7099;53.922;10.728;2023-07-28T19:37:22;1.60;;;1.33;;
14048;SDS011;7099;53.922;10.728;2023-07-28T19:41:48;2.00;;;1.60;;
14048;SDS011;7099;53.922;10.728;2023-07-28T19:45:53;10.80;;;1.40;;
14048;SDS011;7099;53.922;10.728;2023-07-28T19:49:59;2.50;;;1.23;;
14048;SDS011;7099;53.922;10.728;2023-07-28T19:54:17;1.50;;;1.30;;
14048;SDS011;7099;53.922;10.728;2023-07-28T19:58:23;1.90;;;1.40;;
14048;SDS011;7099;53.922;10.728;2023-07-28T20:02:28;2.03;;;1.47;;
14048;SDS011;7099;53.922;10.728;2023-07-28T20:06:34;2.37;;;1.50;;
14048;SDS011;7099;53.922;10.728;2023-07-28T20:10:41;3.50;;;2.00;;
14048;SDS011;7099;53.922;10.728;2023-07-28T20:14:46;2.03;;;1.83;;
14048;SDS011;7099;53.922;10.728;2023-07-28T20:18:53;2.93;;;1.80;;
14048;SDS011;7099;53.922;10.728;2023-07-28T20:22:59;2.83;;;2.03;;
14048;SDS011;7099;53.922;10.728;2023-07-28T20:27:05;4.93;;;2.07;;
14048;SDS011;7099;53.922;10.728;2023-07-28T20:31:13;4.50;;;1.90;;
14048;SDS011;7099;53.922;10.728;2023-07-28T20:35:19;2.97;;;1.97;;
14048;SDS011;7099;53.922;10.728;2023-07-28T20:39:24;3.30;;;2.10;;
14048;SDS011;7099;53.922;10.728;2023-07-28T20:43:30;2.50;;;2.00;;
14048;SDS011;7099;53.922;10.728;2023-07-28T20:47:38;4.00;;;2.63;;
14048;SDS011;7099;53.922;10.728;2023-07-28T20:51:44;5.30;;;2.33;;
14048;SDS011;7099;53.922;10.728;2023-07-28T20:55:50;12.00;;;2.10;;
14048;SDS011;7099;53.922;10.728;2023-07-28T20:59:56;8.83;;;2.40;;
14048;SDS011;7099;53.922;10.728;2023-07-28T21:04:01;3.37;;;2.20;;
14048;SDS011;7099;53.922;10.728;2023-07-28T21:08:07;2.57;;;2.37;;
14048;SDS011;7099;53.922;10.728;2023-07-28T21:12:14;6.23;;;2.53;;
14048;SDS011;7099;53.922;10.728;2023-07-28T21:16:20;4.70;;;2.70;;
14048;SDS011;7099;53.922;10.728;2023-07-28T21:20:26;3.77;;;2.80;;
14048;SDS011;7099;53.922;10.728;2023-07-28T21:24:31;3.70;;;2.33;;
14048;SDS011;7099;53.922;10.728;2023-07-28T21:28:37;3.55;;;2.88;;
14048;SDS011;7099;53.922;10.728;2023-07-28T21:32:42;3.88;;;2.90;;
14048;SDS011;7099;53.922;10.728;2023-07-28T21:36:48;3.30;;;3.00;;
14048;SDS011;7099;53.922;10.728;2023-07-28T21:40:54;4.45;;;2.90;;
14048;SDS011;7099;53.922;10.728;2023-07-28T21:44:59;3.97;;;3.05;;
14048;SDS011;7099;53.922;10.728;2023-07-28T21:49:04;6.20;;;3.20;;
14048;SDS011;7099;53.922;10.728;2023-07-28T21:53:10;4.07;;;2.83;;
14048;SDS011;7099;53.922;10.728;2023-07-28T21:57:15;5.15;;;2.80;;
14048;SDS011;7099;53.922;10.728;2023-07-28T22:01:21;7.30;;;3.00;;
14048;SDS011;7099;53.922;10.728;2023-07-28T22:05:27;3.80;;;3.30;;
14048;SDS011;7099;53.922;10.728;2023-07-28T22:09:32;7.13;;;3.67;;
14048;SDS011;7099;53.922;10.728;2023-07-28T22:13:37;3.13;;;2.63;;
14048;SDS011;7099;53.922;10.728;2023-07-28T22:17:43;4.73;;;2.93;;
14048;SDS011;7099;53.922;10.728;2023-07-28T22:21:49;3.70;;;2.57;;
14048;SDS011;7099;53.922;10.728;2023-07-28T22:25:54;5.90;;;2.90;;
14048;SDS011;7099;53.922;10.728;2023-07-28T22:30:00;3.10;;;2.80;;
14048;SDS011;7099;53.922;10.728;2023-07-28T22:34:06;4.07;;;2.53;;
14048;SDS011;7099;53.922;10.728;2023-07-28T22:38:11;4.87;;;2.87;;
14048;SDS011;7099;53.922;10.728;2023-07-28T22:42:17;6.55;;;3.40;;
14048;SDS011;7099;53.922;10.728;2023-07-28T22:46:22;7.00;;;2.90;;
14048;SDS011;7099;53.922;10.728;2023-07-28T22:50:28;3.80;;;2.93;;
14048;SDS011;7099;53.922;10.728;2023-07-28T22:54:34;5.20;;;3.10;;
14048;SDS011;7099;53.922;10.728;2023-07-28T22:58:39;3.20;;;2.90;;
14048;SDS011;7099;53.922;10.728;2023-07-28T23:02:45;4.18;;;2.90;;
14048;SDS011;7099;53.922;10.728;2023-07-28T23:06:50;6.63;;;2.80;;
14048;SDS011;7099;53.922;10.728;2023-07-28T23:10:56;8.98;;;3.30;;
14048;SDS011;7099;53.922;10.728;2023-07-28T23:15:01;5.60;;;3.03;;
14048;SDS011;7099;53.922;10.728;2023-07-28T23:19:08;4.68;;;2.90;;
14048;SDS011;7099;53.922;10.728;2023-07-28T23:23:14;6.05;;;2.83;;
14048;SDS011;7099;53.922;10.728;2023-07-28T23:51:54;3.97;;;2.80;;
14048;SDS011;7099;53.922;10.728;2023-07-28T23:55:59;3.13;;;2.50;;
